createdAt,value
2022-12-22T00:00:03.417Z,26.60
2022-12-22T00:04:31.336Z,18.20
2022-12-22T00:07:20.669Z,25.00
2022-12-22T00:10:10.084Z,26.30
2022-12-22T00:13:07.229Z,26.20
2022-12-22T00:15:56.619Z,26.90
2022-12-22T00:18:47.254Z,24.20
2022-12-22T00:21:36.916Z,26.80
2022-12-22T00:24:28.686Z,23.80
2022-12-22T00:27:18.397Z,24.10
2022-12-22T00:30:13.273Z,24.60
2022-12-22T00:33:02.685Z,27.10
2022-12-22T00:35:52.161Z,25.80
2022-12-22T00:38:42.080Z,28.40
2022-12-22T00:41:31.645Z,28.70
2022-12-22T00:44:21.650Z,27.30
2022-12-22T00:47:11.189Z,27.70
2022-12-22T00:50:03.780Z,25.50
2022-12-22T00:52:54.098Z,27.50
2022-12-22T00:55:48.984Z,28.00
2022-12-22T00:58:39.992Z,26.00
2022-12-22T01:01:31.177Z,26.40
2022-12-22T01:07:08.964Z,27.10
2022-12-22T01:09:58.349Z,25.00
2022-12-22T01:12:55.915Z,24.70
2022-12-22T01:15:47.195Z,24.20
2022-12-22T01:21:25.644Z,24.30
2022-12-22T01:24:14.998Z,26.20
2022-12-22T01:27:04.863Z,26.70
2022-12-22T01:29:54.525Z,24.70
2022-12-22T01:32:44.165Z,25.20
2022-12-22T01:35:39.241Z,27.50
2022-12-22T01:38:28.789Z,26.10
2022-12-22T01:41:20.288Z,24.10
2022-12-22T01:44:10.145Z,27.70
2022-12-22T01:47:03.271Z,24.80
2022-12-22T01:49:55.599Z,24.60
2022-12-22T01:52:54.004Z,25.90
2022-12-22T01:55:44.931Z,25.20
2022-12-22T01:58:42.509Z,24.40
2022-12-22T02:01:32.170Z,23.60
2022-12-22T02:04:21.985Z,24.80
2022-12-22T02:07:16.738Z,23.90
2022-12-22T02:10:16.929Z,24.30
2022-12-22T02:13:15.601Z,24.50
2022-12-22T02:16:10.389Z,23.90
2022-12-22T02:19:07.865Z,24.10
2022-12-22T02:22:05.300Z,24.70
2022-12-22T02:24:59.970Z,26.00
2022-12-22T02:27:53.147Z,21.60
2022-12-22T02:30:51.802Z,23.80
2022-12-22T02:33:42.526Z,22.70
2022-12-22T02:36:44.892Z,23.70
2022-12-22T02:39:43.556Z,22.70
2022-12-22T02:42:41.852Z,22.20
2022-12-22T02:45:37.222Z,21.60
2022-12-22T02:48:32.251Z,21.90
2022-12-22T02:51:27.072Z,22.20
2022-12-22T02:54:18.257Z,23.10
2022-12-22T02:57:07.932Z,23.30
2022-12-22T02:59:57.322Z,19.50
2022-12-22T03:02:46.773Z,22.80
2022-12-22T03:05:36.390Z,20.70
2022-12-22T03:08:25.767Z,22.00
2022-12-22T03:11:15.395Z,22.80
2022-12-22T03:14:04.860Z,22.40
2022-12-22T03:16:54.054Z,20.40
2022-12-22T03:19:43.277Z,20.60
2022-12-22T03:22:32.944Z,21.00
2022-12-22T03:25:22.247Z,23.40
2022-12-22T03:27:54.141Z,25.20
2022-12-22T03:30:26.334Z,24.00
2022-12-22T03:32:58.281Z,24.10
2022-12-22T03:35:30.362Z,21.10
2022-12-22T03:38:03.831Z,20.50
2022-12-22T03:40:35.849Z,19.60
2022-12-22T03:43:25.349Z,21.20
2022-12-22T03:46:16.513Z,22.70
2022-12-22T03:49:08.769Z,22.70
2022-12-22T03:51:43.444Z,21.80
2022-12-22T03:54:16.367Z,21.30
2022-12-22T03:56:49.849Z,21.00
2022-12-22T03:59:22.090Z,22.70
2022-12-22T04:01:55.787Z,22.10
2022-12-22T04:04:28.913Z,21.90
2022-12-22T04:07:06.963Z,23.00
2022-12-22T04:09:58.772Z,23.60
2022-12-22T04:12:48.262Z,23.80
2022-12-22T04:15:20.195Z,22.70
2022-12-22T04:17:52.267Z,22.50
2022-12-22T04:20:27.609Z,22.00
2022-12-22T04:22:59.718Z,26.30
2022-12-22T04:25:31.678Z,24.30
2022-12-22T04:28:03.958Z,28.90
2022-12-22T04:30:36.273Z,23.50
2022-12-22T04:33:08.216Z,26.50
2022-12-22T04:35:40.034Z,28.70
2022-12-22T04:38:12.015Z,28.90
2022-12-22T04:40:43.879Z,30.90
2022-12-22T04:43:15.634Z,32.10
2022-12-22T04:45:48.083Z,31.50
2022-12-22T04:48:19.941Z,29.60
2022-12-22T04:50:54.998Z,28.50
2022-12-22T04:53:28.053Z,25.10
2022-12-22T04:56:02.117Z,25.10
2022-12-22T04:58:34.662Z,23.70
2022-12-22T05:01:13.942Z,21.50
2022-12-22T05:03:46.188Z,21.40
2022-12-22T05:06:18.569Z,23.60
2022-12-22T05:08:50.383Z,20.00
2022-12-22T05:11:22.372Z,19.00
2022-12-22T05:13:54.194Z,18.50
2022-12-22T05:16:26.108Z,19.00
2022-12-22T05:18:58.014Z,20.00
2022-12-22T05:21:29.985Z,21.20
2022-12-22T05:24:01.822Z,20.00
2022-12-22T05:26:33.741Z,18.40
2022-12-22T05:29:05.553Z,23.20
2022-12-22T05:31:40.725Z,20.60
2022-12-22T05:34:17.028Z,23.50
2022-12-22T05:36:48.867Z,22.50
2022-12-22T05:39:20.819Z,22.00
2022-12-22T05:41:52.692Z,21.30
2022-12-22T05:44:24.576Z,20.80
2022-12-22T05:46:56.515Z,22.60
2022-12-22T05:49:28.332Z,20.30
2022-12-22T05:52:00.199Z,21.20
2022-12-22T05:54:32.063Z,21.50
2022-12-22T05:57:03.997Z,20.80
2022-12-22T05:59:35.830Z,20.10
2022-12-22T06:02:07.775Z,22.20
2022-12-22T06:04:39.754Z,26.20
2022-12-22T06:07:11.634Z,29.40
2022-12-22T06:09:43.527Z,26.90
2022-12-22T06:12:15.601Z,25.80
2022-12-22T06:14:47.385Z,24.10
2022-12-22T06:17:19.224Z,20.30
2022-12-22T06:19:51.058Z,25.00
2022-12-22T06:22:22.932Z,22.30
2022-12-22T06:24:54.709Z,24.00
2022-12-22T06:27:26.634Z,21.60
2022-12-22T06:30:04.910Z,20.00
2022-12-22T06:32:38.941Z,20.70
2022-12-22T06:35:12.306Z,19.70
2022-12-22T06:37:44.168Z,20.60
2022-12-22T06:40:16.516Z,20.90
2022-12-22T06:43:08.028Z,21.10
2022-12-22T06:45:42.477Z,21.50
2022-12-22T06:48:14.940Z,24.10
2022-12-22T06:50:47.051Z,25.40
2022-12-22T06:53:19.146Z,23.60
2022-12-22T06:55:50.947Z,23.30
2022-12-22T06:58:22.766Z,23.90
2022-12-22T07:00:56.698Z,24.60
2022-12-22T07:03:28.553Z,19.60
2022-12-22T07:06:00.814Z,24.30
2022-12-22T07:08:32.630Z,22.50
2022-12-22T07:11:04.478Z,29.30
2022-12-22T07:13:37.299Z,23.10
2022-12-22T07:16:11.177Z,25.00
2022-12-22T07:18:44.661Z,24.20
2022-12-22T07:21:16.948Z,23.80
2022-12-22T07:23:48.800Z,23.90
2022-12-22T07:26:20.581Z,24.10
2022-12-22T07:28:52.488Z,24.80
2022-12-22T07:31:24.679Z,24.80
2022-12-22T07:33:56.603Z,24.80
2022-12-22T07:36:28.615Z,25.70
2022-12-22T07:39:00.428Z,27.20
2022-12-22T07:41:49.723Z,23.80
2022-12-22T07:44:21.653Z,26.20
2022-12-22T07:46:53.574Z,27.30
2022-12-22T07:49:42.956Z,25.20
2022-12-22T07:52:14.781Z,27.60
2022-12-22T07:54:46.587Z,23.60
2022-12-22T07:57:18.350Z,27.70
2022-12-22T07:59:50.190Z,28.30
2022-12-22T08:02:22.066Z,26.70
2022-12-22T08:04:54.024Z,28.90
2022-12-22T08:07:25.889Z,27.60
2022-12-22T08:09:57.723Z,24.40
2022-12-22T08:12:32.501Z,23.90
2022-12-22T08:15:04.861Z,27.80
2022-12-22T08:17:36.817Z,26.20
2022-12-22T08:20:14.151Z,31.50
2022-12-22T08:22:46.028Z,29.60
2022-12-22T08:25:18.519Z,27.70
2022-12-22T08:27:54.022Z,28.40
2022-12-22T08:30:34.680Z,27.50
2022-12-22T08:33:06.873Z,24.80
2022-12-22T08:35:38.850Z,25.80
2022-12-22T08:38:11.494Z,24.80
2022-12-22T08:40:46.659Z,26.00
2022-12-22T08:43:21.674Z,25.10
2022-12-22T08:45:53.507Z,28.20
2022-12-22T08:48:25.363Z,25.30
2022-12-22T08:50:57.205Z,28.60
2022-12-22T08:56:20.775Z,27.60
2022-12-22T08:58:52.557Z,28.30
2022-12-22T09:01:25.297Z,32.20
2022-12-22T09:03:57.212Z,32.80
2022-12-22T09:06:34.823Z,34.40
2022-12-22T09:09:12.154Z,29.30
2022-12-22T09:11:44.144Z,34.50
2022-12-22T09:14:16.429Z,32.90
2022-12-22T09:16:48.322Z,35.30
2022-12-22T09:19:20.319Z,33.30
2022-12-22T09:21:52.298Z,31.00
2022-12-22T09:24:24.135Z,31.50
2022-12-22T09:26:56.144Z,30.90
2022-12-22T09:29:28.158Z,31.50
2022-12-22T09:32:00.218Z,28.20
2022-12-22T09:34:32.122Z,29.60
2022-12-22T09:37:06.492Z,29.90
2022-12-22T09:39:38.377Z,31.80
2022-12-22T09:42:15.579Z,35.20
2022-12-22T09:44:52.018Z,33.50
2022-12-22T09:47:33.339Z,27.70
2022-12-22T09:50:17.195Z,30.70
2022-12-22T09:52:53.752Z,27.70
2022-12-22T09:55:39.654Z,29.60
2022-12-22T09:58:26.276Z,28.70
2022-12-22T10:01:06.716Z,29.40
2022-12-22T10:03:46.505Z,33.30
2022-12-22T10:06:26.114Z,23.50
2022-12-22T10:08:57.961Z,23.50
2022-12-22T10:11:29.780Z,21.60
2022-12-22T10:14:01.629Z,21.60
2022-12-22T10:16:33.567Z,26.00
2022-12-22T10:19:12.795Z,24.80
2022-12-22T10:21:47.139Z,26.50
2022-12-22T10:24:29.554Z,27.30
2022-12-22T10:27:03.713Z,30.10
2022-12-22T10:29:37.277Z,24.90
2022-12-22T10:32:16.585Z,22.80
2022-12-22T10:35:03.133Z,28.40
2022-12-22T10:37:38.571Z,26.10
2022-12-22T10:40:25.941Z,25.30
2022-12-22T10:42:59.903Z,28.80
2022-12-22T10:45:31.860Z,23.90
2022-12-22T10:48:04.184Z,25.60
2022-12-22T10:50:45.169Z,25.90
2022-12-22T10:53:17.304Z,22.40
2022-12-22T10:56:05.630Z,24.90
2022-12-22T10:58:50.319Z,23.00
2022-12-22T11:01:33.879Z,24.60
2022-12-22T11:04:23.571Z,21.60
2022-12-22T11:06:57.069Z,24.30
2022-12-22T11:09:34.129Z,22.40
2022-12-22T11:12:23.220Z,23.20
2022-12-22T11:15:02.417Z,22.20
2022-12-22T11:17:45.708Z,21.50
2022-12-22T11:20:45.882Z,21.20
2022-12-22T11:23:32.395Z,20.20
2022-12-22T11:26:16.292Z,23.40
2022-12-22T11:29:03.239Z,21.20
2022-12-22T11:31:50.973Z,24.30
2022-12-22T11:34:41.948Z,23.50
2022-12-22T11:37:28.288Z,21.50
2022-12-22T11:40:17.062Z,19.70
2022-12-22T11:43:07.628Z,21.00
2022-12-22T11:45:53.332Z,19.30
2022-12-22T11:48:41.326Z,21.50
2022-12-22T11:51:27.140Z,18.00
2022-12-22T11:54:15.421Z,22.20
2022-12-22T11:56:51.948Z,19.90
2022-12-22T11:59:39.323Z,19.80
2022-12-22T12:02:34.980Z,22.20
2022-12-22T12:05:34.601Z,21.00
2022-12-22T12:08:16.634Z,22.80
2022-12-22T12:10:52.957Z,22.00
2022-12-22T12:13:36.723Z,20.50
2022-12-22T12:16:18.675Z,21.40
2022-12-22T12:19:08.722Z,18.40
2022-12-22T12:21:49.097Z,20.40
2022-12-22T12:24:34.890Z,20.00
2022-12-22T12:27:18.907Z,18.70
2022-12-22T12:30:35.644Z,19.70
2022-12-22T12:32:57.684Z,20.60
2022-12-22T12:35:48.315Z,19.80
2022-12-22T12:41:29.140Z,22.20
2022-12-22T12:44:02.534Z,21.60
2022-12-22T12:47:13.605Z,20.70
2022-12-22T12:50:03.264Z,21.40
2022-12-22T12:53:15.675Z,19.40
2022-12-22T12:56:02.407Z,19.60
2022-12-22T12:58:55.671Z,19.60
2022-12-22T13:01:57.736Z,19.30
2022-12-22T13:05:10.644Z,20.50
2022-12-22T13:08:16.200Z,17.80
2022-12-22T13:11:12.405Z,18.00
2022-12-22T13:13:52.193Z,20.80
2022-12-22T13:16:33.795Z,17.10
2022-12-22T13:19:18.366Z,17.80
2022-12-22T13:21:53.494Z,16.00
2022-12-22T13:24:49.264Z,15.90
2022-12-22T13:27:23.669Z,15.20
2022-12-22T13:29:55.964Z,14.30
2022-12-22T13:32:34.142Z,15.20
2022-12-22T13:35:38.566Z,17.00
2022-12-22T13:38:30.424Z,16.60
2022-12-22T13:41:17.129Z,14.50
2022-12-22T13:43:57.464Z,14.70
2022-12-22T13:46:31.260Z,16.70
2022-12-22T13:49:04.995Z,16.10
2022-12-22T13:51:39.681Z,15.90
2022-12-22T13:54:18.377Z,13.40
2022-12-22T13:56:52.487Z,15.20
2022-12-22T13:59:30.861Z,14.00
2022-12-22T14:02:05.621Z,12.50
2022-12-22T14:04:39.066Z,17.30
2022-12-22T14:07:14.988Z,17.60
2022-12-22T14:09:50.730Z,15.10
2022-12-22T14:12:24.196Z,18.30
2022-12-22T14:14:58.293Z,13.90
2022-12-22T14:17:32.697Z,15.30
2022-12-22T14:20:17.629Z,18.60
2022-12-22T14:23:00.095Z,14.90
2022-12-22T14:25:35.416Z,15.20
2022-12-22T14:28:09.060Z,15.00
2022-12-22T14:30:46.326Z,14.80
2022-12-22T14:33:27.858Z,13.00
2022-12-22T14:36:17.614Z,15.70
2022-12-22T14:38:51.411Z,13.50
2022-12-22T14:41:42.973Z,16.30
2022-12-22T14:44:20.901Z,14.80
2022-12-22T14:47:09.248Z,15.30
2022-12-22T14:49:48.006Z,14.30
2022-12-22T14:52:26.220Z,16.00
2022-12-22T14:54:58.477Z,14.60
2022-12-22T14:57:37.167Z,16.10
2022-12-22T15:00:32.042Z,14.70
2022-12-22T15:03:07.224Z,16.20
2022-12-22T15:05:42.211Z,14.00
2022-12-22T15:08:40.939Z,13.50
2022-12-22T15:11:14.764Z,15.80
2022-12-22T15:13:48.964Z,20.40
2022-12-22T15:16:24.028Z,21.50
2022-12-22T15:18:56.462Z,24.90
2022-12-22T15:21:28.241Z,23.80
2022-12-22T15:24:00.127Z,24.30
2022-12-22T15:26:37.713Z,22.20
2022-12-22T15:29:09.936Z,25.50
2022-12-22T15:31:43.461Z,22.20
2022-12-22T15:34:19.962Z,20.40
2022-12-22T15:36:51.892Z,17.00
2022-12-22T15:39:24.745Z,17.50
2022-12-22T15:41:56.538Z,15.70
2022-12-22T15:44:31.095Z,16.10
2022-12-22T15:47:07.342Z,16.30
2022-12-22T15:49:39.529Z,16.90
2022-12-22T15:52:14.837Z,13.60
2022-12-22T15:54:46.816Z,17.50
2022-12-22T15:57:18.816Z,15.00
2022-12-22T15:59:50.785Z,15.10
2022-12-22T16:02:22.796Z,16.30
2022-12-22T16:04:54.782Z,16.30
2022-12-22T16:07:26.656Z,19.10
2022-12-22T16:09:58.992Z,16.10
2022-12-22T16:12:32.883Z,19.80
2022-12-22T16:15:05.314Z,17.50
2022-12-22T16:17:37.367Z,16.20
2022-12-22T16:20:13.800Z,18.70
2022-12-22T16:22:46.105Z,18.50
2022-12-22T16:25:21.150Z,21.20
2022-12-22T16:27:53.313Z,22.10
2022-12-22T16:30:29.790Z,22.80
2022-12-22T16:33:02.332Z,23.60
2022-12-22T16:35:34.219Z,21.10
2022-12-22T16:38:06.224Z,25.10
2022-12-22T16:40:47.756Z,20.40
2022-12-22T16:46:19.252Z,19.90
2022-12-22T16:48:53.986Z,20.40
2022-12-22T16:51:29.176Z,21.70
2022-12-22T16:54:01.110Z,17.80
2022-12-22T16:56:35.053Z,18.30
2022-12-22T16:59:06.905Z,18.00
2022-12-22T17:01:42.349Z,22.10
2022-12-22T17:04:18.168Z,18.30
2022-12-22T17:06:51.776Z,17.90
2022-12-22T17:09:28.523Z,19.90
2022-12-22T17:12:01.792Z,18.40
2022-12-22T17:14:36.380Z,18.30
2022-12-22T17:17:13.065Z,16.80
2022-12-22T17:19:44.957Z,17.20
2022-12-22T17:22:27.219Z,19.70
2022-12-22T17:25:02.193Z,26.00
2022-12-22T17:27:35.233Z,20.90
2022-12-22T17:30:18.114Z,36.50
2022-12-22T17:32:53.014Z,37.00
2022-12-22T17:35:28.962Z,34.30
2022-12-22T17:38:01.307Z,28.60
2022-12-22T17:40:34.821Z,26.80
2022-12-22T17:43:06.811Z,24.90
2022-12-22T17:45:38.544Z,32.50
2022-12-22T17:48:11.239Z,29.40
2022-12-22T17:50:44.941Z,25.60
2022-12-22T17:53:20.089Z,26.70
2022-12-22T17:56:09.002Z,28.80
2022-12-22T17:58:43.489Z,31.60
2022-12-22T18:01:23.389Z,35.80
2022-12-22T18:03:55.937Z,40.00
2022-12-22T18:06:31.845Z,35.00
2022-12-22T18:09:04.248Z,33.80
2022-12-22T18:11:39.206Z,30.20
2022-12-22T18:14:16.558Z,24.90
2022-12-22T18:16:48.507Z,17.60
2022-12-22T18:19:20.520Z,20.20
2022-12-22T18:21:52.417Z,17.20
2022-12-22T18:24:24.240Z,17.70
2022-12-22T18:26:56.048Z,16.10
2022-12-22T18:29:27.981Z,17.50
2022-12-22T18:32:00.134Z,14.90
2022-12-22T18:34:32.103Z,13.70
2022-12-22T18:37:04.255Z,11.00
2022-12-22T18:39:38.066Z,11.00
2022-12-22T18:42:22.100Z,10.20
2022-12-22T18:44:54.197Z,9.30
2022-12-22T18:47:26.047Z,8.70
2022-12-22T18:50:02.843Z,9.00
2022-12-22T18:52:34.830Z,9.70
2022-12-22T18:55:12.748Z,8.40
2022-12-22T18:57:47.330Z,8.60
2022-12-22T19:00:24.044Z,8.80
2022-12-22T19:02:58.900Z,9.10
2022-12-22T19:05:33.202Z,8.20
2022-12-22T19:08:05.655Z,8.00
2022-12-22T19:10:41.361Z,11.80
2022-12-22T19:13:21.825Z,10.90
2022-12-22T19:15:53.980Z,9.40
2022-12-22T19:18:27.616Z,7.80
2022-12-22T19:20:59.744Z,7.20
2022-12-22T19:23:31.653Z,6.90
2022-12-22T19:26:08.891Z,7.80
2022-12-22T19:28:43.902Z,8.10
2022-12-22T19:31:23.050Z,7.90
2022-12-22T19:33:57.065Z,8.30
2022-12-22T19:36:30.558Z,9.20
2022-12-22T19:39:05.033Z,6.90
2022-12-22T19:41:42.947Z,7.00
2022-12-22T19:44:20.686Z,9.20
2022-12-22T19:46:53.435Z,9.40
2022-12-22T19:49:28.132Z,8.20
2022-12-22T19:52:00.597Z,7.60
2022-12-22T19:54:33.463Z,8.50
2022-12-22T19:57:08.011Z,8.30
2022-12-22T19:59:43.695Z,8.80
2022-12-22T20:02:29.373Z,8.50
2022-12-22T20:05:02.179Z,8.10
2022-12-22T20:07:37.116Z,8.90
2022-12-22T20:10:14.870Z,9.00
2022-12-22T20:12:47.991Z,10.80
2022-12-22T20:15:24.094Z,9.60
2022-12-22T20:17:57.533Z,10.00
2022-12-22T20:20:33.748Z,9.00
2022-12-22T20:23:11.264Z,11.90
2022-12-22T20:26:23.213Z,11.20
2022-12-22T20:28:55.916Z,9.40
2022-12-22T20:31:28.781Z,10.90
2022-12-22T20:34:01.415Z,8.50
2022-12-22T20:36:33.512Z,8.40
2022-12-22T20:39:12.499Z,8.10
2022-12-22T20:41:50.499Z,7.90
2022-12-22T20:44:25.387Z,7.60
2022-12-22T20:46:57.212Z,5.90
2022-12-22T20:49:29.072Z,7.70
2022-12-22T20:52:00.953Z,5.90
2022-12-22T20:54:32.906Z,8.10
2022-12-22T20:57:05.568Z,7.20
2022-12-22T20:59:37.414Z,6.80
2022-12-22T21:02:22.731Z,7.30
2022-12-22T21:04:54.878Z,7.70
2022-12-22T21:07:26.716Z,7.60
2022-12-22T21:09:58.554Z,9.40
2022-12-22T21:12:30.530Z,9.10
2022-12-22T21:15:03.031Z,8.80
2022-12-22T21:17:43.289Z,9.90
2022-12-22T21:20:25.640Z,8.80
2022-12-22T21:22:57.495Z,7.40
2022-12-22T21:25:29.468Z,10.00
2022-12-22T21:28:02.596Z,11.50
2022-12-22T21:30:38.159Z,9.80
2022-12-22T21:33:10.827Z,9.60
2022-12-22T21:35:42.731Z,11.10
2022-12-22T21:38:18.820Z,12.10
2022-12-22T21:40:50.808Z,10.20
2022-12-22T21:43:22.935Z,10.80
2022-12-22T21:45:54.948Z,12.00
2022-12-22T21:48:26.765Z,9.90
2022-12-22T21:50:58.725Z,10.40
2022-12-22T21:53:30.558Z,10.50
2022-12-22T21:56:02.531Z,11.90
2022-12-22T21:58:34.294Z,14.30
2022-12-22T22:01:06.889Z,12.00
2022-12-22T22:03:38.811Z,13.20
2022-12-22T22:06:10.980Z,12.00
2022-12-22T22:08:42.760Z,11.60
2022-12-22T22:11:20.666Z,12.80
2022-12-22T22:13:53.090Z,12.80
2022-12-22T22:16:24.948Z,12.20
2022-12-22T22:18:56.891Z,12.40
2022-12-22T22:21:28.810Z,13.20
2022-12-22T22:24:00.671Z,12.90
2022-12-22T22:26:32.600Z,13.00
2022-12-22T22:29:04.425Z,18.20
2022-12-22T22:31:36.604Z,14.10
2022-12-22T22:34:08.500Z,13.60
2022-12-22T22:36:40.358Z,13.00
2022-12-22T22:39:12.214Z,11.90
2022-12-22T22:41:44.185Z,15.80
2022-12-22T22:44:16.094Z,12.80
2022-12-22T22:46:48.076Z,13.50
2022-12-22T22:49:26.251Z,13.60
2022-12-22T22:52:00.549Z,16.40
2022-12-22T22:54:32.808Z,19.00
2022-12-22T22:57:05.018Z,18.50
2022-12-22T22:59:36.926Z,25.40
2022-12-22T23:02:10.793Z,32.40
2022-12-22T23:04:43.101Z,33.80
2022-12-22T23:07:15.019Z,21.60
2022-12-22T23:09:46.888Z,21.50
2022-12-22T23:12:18.689Z,25.80
2022-12-22T23:14:50.466Z,25.00
2022-12-22T23:17:22.320Z,22.90
2022-12-22T23:19:54.203Z,23.20
2022-12-22T23:22:26.151Z,18.00
2022-12-22T23:24:57.949Z,15.30
2022-12-22T23:27:31.295Z,17.30
2022-12-22T23:30:03.196Z,15.20
2022-12-22T23:32:35.047Z,18.70
2022-12-22T23:35:09.337Z,18.30
2022-12-22T23:37:41.488Z,19.60
2022-12-22T23:43:06.697Z,23.30
2022-12-22T23:45:40.693Z,22.90
2022-12-22T23:48:12.720Z,22.30
2022-12-22T23:50:46.440Z,21.10
2022-12-22T23:53:18.710Z,21.70
2022-12-22T23:55:50.973Z,20.20
2022-12-22T23:58:22.814Z,23.00
